Time;durP1;ratioP1;P1;durP2;ratioP2;P2;SDS_P1;SDS_P2;PMS_P1;PMS_P2;Temp;Humidity;BMP_temperature;BMP_pressure;BME280_temperature;BME280_humidity;BME280_pressure;Samples;Min_cycle;Max_cycle;Signal;HPM_P1;HPM_P2
2023/10/10 00:00:07;;;;;;;7.28;4.07;;;15.90;99.90;;;;;;4201014;28;20218;-90
2023/10/10 00:02:18;;;;;;;6.68;3.88;;;15.90;99.90;;;;;;4201942;28;20174;-85
2023/10/10 00:04:19;;;;;;;5.40;3.08;;;15.90;99.90;;;;;;4184318;28;20183;-86
2023/10/10 00:06:22;;;;;;;6.57;3.95;;;15.90;99.90;;;;;;4186065;28;20183;-85
2023/10/10 00:08:28;;;;;;;10.68;4.45;;;15.90;99.90;;;;;;4184857;28;20639;-92
2023/10/10 00:10:31;;;;;;;6.47;3.42;;;16.00;99.90;;;;;;4184574;28;20171;-93
2023/10/10 00:12:35;;;;;;;4.10;2.92;;;16.00;99.90;;;;;;4184140;28;20233;-85
2023/10/10 00:14:35;;;;;;;8.57;3.60;;;16.10;99.90;;;;;;4185383;28;20687;-94
2023/10/10 00:16:37;;;;;;;10.82;4.07;;;16.00;99.90;;;;;;4186660;28;20205;-93
2023/10/10 00:18:43;;;;;;;7.30;3.30;;;16.00;99.90;;;;;;4205196;28;20174;-86
2023/10/10 00:20:47;;;;;;;9.32;3.75;;;16.00;99.90;;;;;;4201748;28;20301;-86
2023/10/10 00:22:58;;;;;;;5.38;3.20;;;15.90;99.90;;;;;;4219169;28;20159;-85
2023/10/10 00:24:59;;;;;;;7.43;3.08;;;16.00;99.90;;;;;;4187644;28;20201;-96
2023/10/10 00:27:13;;;;;;;6.70;3.55;;;16.00;99.90;;;;;;4204282;28;20218;-91
2023/10/10 00:29:22;;;;;;;7.20;3.75;;;16.10;99.90;;;;;;4227069;28;20197;-86
2023/10/10 00:31:26;;;;;;;5.90;3.38;;;16.10;99.90;;;;;;4206484;28;20170;-85
2023/10/10 00:33:27;;;;;;;6.20;3.60;;;16.10;99.90;;;;;;4202857;28;20171;-84
2023/10/10 00:35:34;;;;;;;6.60;3.30;;;16.00;99.90;;;;;;4204388;28;20269;-90
2023/10/10 00:37:57;;;;;;;6.90;4.15;;;15.90;99.90;;;;;;4203975;28;20182;-95
2023/10/10 00:40:02;;;;;;;12.07;3.95;;;15.80;99.90;;;;;;4203534;28;20206;-94
2023/10/10 00:42:06;;;;;;;10.32;3.67;;;15.60;99.90;;;;;;4184550;28;20167;-87
2023/10/10 00:44:12;;;;;;;6.53;3.35;;;15.50;99.90;;;;;;4220557;28;20215;-85
2023/10/10 00:46:13;;;;;;;8.98;3.47;;;15.50;99.90;;;;;;4200239;28;20194;-85
2023/10/10 00:48:16;;;;;;;6.13;3.10;;;15.50;99.90;;;;;;4201070;28;20179;-96
2023/10/10 00:50:18;;;;;;;7.10;3.08;;;15.50;99.90;;;;;;4200980;28;20167;-94
2023/10/10 00:52:20;;;;;;;8.43;3.42;;;15.50;99.90;;;;;;4188197;28;20194;-86
2023/10/10 00:56:29;;;;;;;7.03;3.80;;;15.40;99.90;;;;;;4219189;28;20196;-86
2023/10/10 00:58:48;;;;;;;5.68;3.15;;;15.40;99.90;;;;;;4203627;28;20647;-95
2023/10/10 01:00:52;;;;;;;6.07;3.05;;;15.40;99.90;;;;;;4184723;28;20210;-90
2023/10/10 01:02:56;;;;;;;8.73;3.38;;;15.30;99.90;;;;;;4184424;28;20167;-85
2023/10/10 01:04:57;;;;;;;6.88;3.85;;;15.20;99.90;;;;;;4183355;28;20602;-85
2023/10/10 01:06:58;;;;;;;9.95;3.70;;;15.20;99.90;;;;;;4199454;28;20195;-91
2023/10/10 01:11:24;;;;;;;10.57;3.60;;;15.10;99.90;;;;;;4177859;28;20550;-95
2023/10/10 01:13:26;;;;;;;7.18;3.15;;;15.10;99.90;;;;;;4201373;28;20175;-86
2023/10/10 01:15:34;;;;;;;6.80;3.58;;;15.10;99.90;;;;;;4201200;28;20329;-85
2023/10/10 01:17:37;;;;;;;7.32;3.58;;;15.00;99.90;;;;;;4187240;28;20179;-87
2023/10/10 01:19:38;;;;;;;9.02;3.72;;;14.90;99.90;;;;;;4185806;28;20219;-89
2023/10/10 01:21:44;;;;;;;5.10;2.67;;;14.90;99.90;;;;;;4199960;28;20208;-95
2023/10/10 01:23:45;;;;;;;6.07;3.22;;;14.90;99.90;;;;;;4184137;28;20199;-85
2023/10/10 01:25:47;;;;;;;5.75;3.30;;;14.90;99.90;;;;;;4183506;28;20540;-93
2023/10/10 01:27:49;;;;;;;8.70;3.00;;;14.90;99.90;;;;;;4183896;28;20179;-87
2023/10/10 01:30:02;;;;;;;7.82;3.28;;;14.80;99.90;;;;;;4200643;28;20170;-91
2023/10/10 01:32:04;;;;;;;7.95;3.10;;;14.80;99.90;;;;;;4182937;28;20182;-85
2023/10/10 01:34:09;;;;;;;9.57;3.53;;;14.80;99.90;;;;;;4199934;28;20625;-95
2023/10/10 01:36:20;;;;;;;8.27;3.17;;;14.80;99.90;;;;;;4218103;28;20214;-85
2023/10/10 01:38:34;;;;;;;10.15;2.88;;;14.70;99.90;;;;;;4183641;28;20178;-84
2023/10/10 01:40:37;;;;;;;8.18;2.88;;;14.80;99.90;;;;;;4198344;28;20222;-85
2023/10/10 01:42:44;;;;;;;5.68;3.17;;;14.80;99.90;;;;;;4199750;28;20844;-91
2023/10/10 01:44:45;;;;;;;5.53;2.92;;;14.70;99.90;;;;;;4182752;28;20174;-85
2023/10/10 01:46:46;;;;;;;7.15;2.60;;;14.80;99.90;;;;;;4202982;28;20214;-85
2023/10/10 01:48:47;;;;;;;7.03;2.72;;;14.90;99.90;;;;;;4206698;22;20234;-94
2023/10/10 01:50:48;;;;;;;8.07;2.88;;;15.00;99.90;;;;;;4205884;28;20157;-94
2023/10/10 01:52:49;;;;;;;6.68;2.95;;;15.00;99.90;;;;;;4206013;28;20167;-94
2023/10/10 01:54:53;;;;;;;7.93;2.50;;;14.90;99.90;;;;;;4220264;28;20211;-86
2023/10/10 01:56:54;;;;;;;7.82;3.03;;;14.80;99.90;;;;;;4203799;28;20662;-86
2023/10/10 01:58:55;;;;;;;5.88;2.78;;;14.70;99.90;;;;;;4204344;28;20210;-86
2023/10/10 02:00:58;;;;;;;9.32;2.90;;;14.70;99.90;;;;;;4205351;28;20177;-92
2023/10/10 02:02:59;;;;;;;7.95;2.42;;;14.70;99.90;;;;;;4205087;28;20638;-86
2023/10/10 02:05:00;;;;;;;5.65;2.35;;;14.60;99.90;;;;;;4206634;28;20205;-93
2023/10/10 02:07:06;;;;;;;12.23;3.08;;;14.60;99.90;;;;;;4205642;28;20200;-86
2023/10/10 02:09:27;;;;;;;5.85;2.13;;;14.50;99.90;;;;;;4222701;28;20304;-94
2023/10/10 02:11:31;;;;;;;6.68;2.63;;;14.40;99.90;;;;;;4205438;28;20202;-91
2023/10/10 02:13:33;;;;;;;6.70;2.70;;;14.30;99.90;;;;;;4221634;28;20169;-94
2023/10/10 02:15:34;;;;;;;5.97;2.92;;;14.30;99.90;;;;;;4238960;28;20186;-95
2023/10/10 02:17:39;;;;;;;7.97;2.58;;;14.20;99.90;;;;;;4220482;28;20196;-93
2023/10/10 02:19:41;;;;;;;5.35;2.60;;;14.30;99.90;;;;;;4204491;28;20207;-87
2023/10/10 02:21:48;;;;;;;5.18;2.67;;;14.20;99.90;;;;;;4205653;28;20177;-94
2023/10/10 02:23:53;;;;;;;6.32;2.80;;;14.30;99.90;;;;;;4207599;28;20273;-91
2023/10/10 02:25:54;;;;;;;5.53;2.97;;;14.30;99.90;;;;;;4203619;28;20321;-86
2023/10/10 02:27:56;;;;;;;8.93;3.17;;;14.40;99.90;;;;;;4224670;28;20163;-86
2023/10/10 02:30:03;;;;;;;7.95;2.95;;;14.40;99.90;;;;;;4205001;28;20193;-86
2023/10/10 02:32:12;;;;;;;3.88;2.22;;;14.40;99.90;;;;;;4204034;28;20175;-85
2023/10/10 02:34:13;;;;;;;8.55;2.70;;;14.40;99.90;;;;;;4202286;28;20508;-94
2023/10/10 02:36:30;;;;;;;7.97;2.80;;;14.40;99.90;;;;;;4203370;28;20252;-92
2023/10/10 02:38:39;;;;;;;7.00;2.63;;;14.30;99.90;;;;;;4206414;28;20598;-86
2023/10/10 02:40:43;;;;;;;6.22;2.53;;;14.30;99.90;;;;;;4205713;28;20280;-86
2023/10/10 02:43:10;;;;;;;5.75;2.80;;;14.20;99.90;;;;;;4203781;28;20163;-90
2023/10/10 02:45:13;;;;;;;10.57;3.55;;;14.30;99.90;;;;;;4219620;28;20186;-92
2023/10/10 02:47:22;;;;;;;6.95;3.15;;;14.20;99.90;;;;;;4205269;28;20231;-93
2023/10/10 02:49:29;;;;;;;4.22;2.45;;;14.20;99.90;;;;;;4221654;28;20173;-86
2023/10/10 02:51:31;;;;;;;5.85;2.92;;;14.20;99.90;;;;;;4203279;28;20166;-86
2023/10/10 02:53:32;;;;;;;8.35;3.17;;;14.20;99.90;;;;;;4207307;28;20174;-86
2023/10/10 02:55:41;;;;;;;6.53;2.75;;;14.30;99.90;;;;;;4203017;28;20207;-86
2023/10/10 02:57:42;;;;;;;9.73;3.47;;;14.30;99.90;;;;;;4202918;28;20167;-86
2023/10/10 02:59:43;;;;;;;4.68;2.85;;;14.40;99.90;;;;;;4203372;28;20198;-94
2023/10/10 03:01:57;;;;;;;5.57;2.55;;;14.40;99.90;;;;;;4218526;28;20174;-85
2023/10/10 03:03:57;;;;;;;7.22;3.25;;;14.50;99.90;;;;;;4201622;28;20162;-85
2023/10/10 03:06:06;;;;;;;6.68;3.00;;;14.40;99.90;;;;;;4218942;28;20190;-86
2023/10/10 03:08:17;;;;;;;5.75;3.05;;;14.40;99.90;;;;;;4200936;28;20262;-86
2023/10/10 03:10:22;;;;;;;7.00;2.40;;;14.40;99.90;;;;;;4203906;28;20333;-95
2023/10/10 03:12:23;;;;;;;5.78;2.70;;;14.30;99.90;;;;;;4203093;28;20170;-86
2023/10/10 03:14:28;;;;;;;9.48;3.80;;;14.20;99.90;;;;;;4219592;28;20170;-87
2023/10/10 03:18:35;;;;;;;7.65;3.50;;;14.30;99.90;;;;;;4218592;28;20166;-86
2023/10/10 03:25:20;;;;;;;7.85;3.47;;;14.30;99.90;;;;;;4151773;28;20177;-88
2023/10/10 03:27:50;;;;;;;8.65;3.45;;;14.10;99.90;;;;;;4223561;28;20216;-93
2023/10/10 03:30:15;;;;;;;6.50;3.47;;;14.10;99.90;;;;;;4225914;28;20280;-85
2023/10/10 03:34:43;;;;;;;7.90;3.35;;;14.30;99.90;;;;;;4224411;28;20204;-86
2023/10/10 03:36:45;;;;;;;7.65;3.45;;;14.30;99.90;;;;;;4207957;28;20194;-86
2023/10/10 05:23:34;;;;;;;5.78;2.75;;;13.50;99.90;;;;;;4219220;28;20173;-93
2023/10/10 05:25:37;;;;;;;5.13;2.88;;;13.60;99.90;;;;;;4221005;28;20205;-88
2023/10/10 05:27:41;;;;;;;5.90;2.95;;;13.60;99.90;;;;;;4204451;28;20179;-87
2023/10/10 05:29:43;;;;;;;6.32;2.83;;;13.50;99.90;;;;;;4207916;28;20171;-88
2023/10/10 05:31:44;;;;;;;5.38;2.60;;;13.50;99.90;;;;;;4208851;28;20179;-87
2023/10/10 05:33:47;;;;;;;7.95;3.05;;;13.60;99.90;;;;;;4212962;28;20155;-88
2023/10/10 05:35:57;;;;;;;6.20;3.10;;;13.50;99.90;;;;;;4202948;28;20197;-88
2023/10/10 05:38:00;;;;;;;5.25;2.60;;;13.50;99.90;;;;;;4201371;28;20167;-95
2023/10/10 05:40:01;;;;;;;8.45;3.00;;;13.40;99.90;;;;;;4200922;28;20312;-87
2023/10/10 05:42:04;;;;;;;5.75;2.80;;;13.40;99.90;;;;;;4200291;28;20170;-88
2023/10/10 05:44:05;;;;;;;10.63;3.00;;;13.40;99.90;;;;;;4199889;28;20175;-87
2023/10/10 05:46:06;;;;;;;8.40;2.65;;;13.30;99.90;;;;;;4201603;28;20191;-87
2023/10/10 05:48:07;;;;;;;6.80;2.47;;;13.20;99.90;;;;;;4200317;28;20252;-89
2023/10/10 05:50:10;;;;;;;7.22;2.90;;;13.20;99.90;;;;;;4200413;28;20186;-88
2023/10/10 05:52:12;;;;;;;7.28;2.58;;;13.20;99.90;;;;;;4218803;28;20162;-88
2023/10/10 05:54:12;;;;;;;6.45;2.35;;;13.20;99.90;;;;;;4202034;28;20680;-88
2023/10/10 05:56:14;;;;;;;8.45;3.00;;;13.30;99.90;;;;;;4219165;28;20225;-88
2023/10/10 05:58:15;;;;;;;5.63;2.47;;;13.30;99.90;;;;;;4205352;28;20230;-89
2023/10/10 06:00:16;;;;;;;6.20;2.33;;;13.10;99.90;;;;;;4203247;28;20206;-95
2023/10/10 06:02:17;;;;;;;7.43;3.17;;;13.20;99.90;;;;;;4217905;28;20167;-87
2023/10/10 06:04:17;;;;;;;6.00;2.50;;;13.30;99.90;;;;;;4217404;28;20182;-96
2023/10/10 06:06:18;;;;;;;10.02;2.30;;;13.30;99.90;;;;;;4218344;28;20201;-92
2023/10/10 06:08:20;;;;;;;4.72;2.45;;;13.30;99.90;;;;;;4200199;28;20174;-88
2023/10/10 06:10:28;;;;;;;6.07;2.75;;;13.30;99.90;;;;;;4200246;28;20542;-88
2023/10/10 06:12:30;;;;;;;6.07;2.40;;;13.40;99.90;;;;;;4199214;28;20265;-88
2023/10/10 06:14:31;;;;;;;4.97;2.10;;;13.40;99.90;;;;;;4200158;28;20170;-87
2023/10/10 06:16:32;;;;;;;8.50;3.22;;;13.40;99.90;;;;;;4201488;28;20253;-95
2023/10/10 06:18:33;;;;;;;5.93;2.58;;;13.50;99.90;;;;;;4200583;28;20171;-95
2023/10/10 06:20:47;;;;;;;6.80;2.45;;;13.50;99.90;;;;;;4216948;28;20220;-88
2023/10/10 06:22:48;;;;;;;7.60;2.60;;;13.40;99.90;;;;;;4200311;28;20649;-87
2023/10/10 06:24:49;;;;;;;6.70;2.67;;;13.50;99.90;;;;;;4217270;28;20331;-87
2023/10/10 06:26:50;;;;;;;9.20;2.42;;;13.50;99.90;;;;;;4202072;28;20182;-88
2023/10/10 06:28:53;;;;;;;11.52;2.80;;;13.60;99.90;;;;;;4202666;28;20163;-94
2023/10/10 06:30:54;;;;;;;16.15;2.70;;;13.60;99.90;;;;;;4200503;28;20174;-88
2023/10/10 06:33:08;;;;;;;10.02;2.78;;;13.70;99.90;;;;;;4203013;28;20167;-94
2023/10/10 06:37:26;;;;;;;9.90;2.63;;;13.60;99.90;;;;;;4215975;28;20247;-88
2023/10/10 06:39:32;;;;;;;6.65;2.55;;;13.60;99.90;;;;;;4199670;28;20198;-88
2023/10/10 06:41:38;;;;;;;7.95;3.10;;;13.50;99.90;;;;;;4200214;28;20187;-94
2023/10/10 06:43:39;;;;;;;7.13;2.72;;;13.40;99.90;;;;;;4199425;28;20186;-88
2023/10/10 06:45:41;;;;;;;11.52;3.25;;;13.40;99.90;;;;;;4200160;28;20194;-87
2023/10/10 06:47:44;;;;;;;4.15;2.40;;;13.50;99.90;;;;;;4199046;28;20262;-87
2023/10/10 06:49:54;;;;;;;5.07;2.85;;;13.50;99.90;;;;;;4198823;28;20221;-94
2023/10/10 06:51:55;;;;;;;7.40;2.70;;;13.60;99.90;;;;;;4215428;28;20172;-88
2023/10/10 06:53:56;;;;;;;5.80;2.38;;;13.60;99.90;;;;;;4199591;28;20174;-87
2023/10/10 06:56:17;;;;;;;6.07;2.00;;;13.60;99.90;;;;;;4215875;28;20193;-87
2023/10/10 06:58:39;;;;;;;7.63;3.00;;;13.80;99.90;;;;;;4234818;28;20165;-87
2023/10/10 07:02:41;;;;;;;5.32;2.38;;;14.00;99.90;;;;;;4216571;28;20174;-87
2023/10/10 07:04:42;;;;;;;5.57;2.60;;;14.10;99.90;;;;;;4200521;28;20211;-88
2023/10/10 07:06:47;;;;;;;3.38;1.88;;;14.20;99.90;;;;;;4217367;28;20216;-91
2023/10/10 07:09:14;;;;;;;11.98;3.20;;;14.30;99.90;;;;;;4200446;28;20166;-88
2023/10/10 07:11:20;;;;;;;11.85;3.17;;;14.40;99.90;;;;;;4217048;28;20181;-87
2023/10/10 07:13:29;;;;;;;6.72;2.80;;;14.30;99.90;;;;;;4199821;28;20277;-88
2023/10/10 07:15:34;;;;;;;5.32;2.63;;;14.40;99.90;;;;;;4199988;28;20180;-88
2023/10/10 07:17:38;;;;;;;7.75;2.47;;;14.40;99.90;;;;;;4200000;28;20646;-88
2023/10/10 07:22:03;;;;;;;7.20;2.40;;;14.90;99.90;;;;;;4216175;28;20178;-87
2023/10/10 07:24:14;;;;;;;5.95;2.28;;;15.10;99.90;;;;;;4217495;28;20270;-87
2023/10/10 07:26:20;;;;;;;4.85;2.53;;;15.40;99.90;;;;;;4200679;28;20225;-87
2023/10/10 07:28:24;;;;;;;4.82;2.05;;;15.40;99.90;;;;;;4201237;28;20595;-88
2023/10/10 07:30:34;;;;;;;4.85;2.30;;;15.40;99.90;;;;;;4216333;28;20227;-87
2023/10/10 07:32:39;;;;;;;4.93;2.30;;;15.60;99.90;;;;;;4199329;28;20662;-95
2023/10/10 07:34:42;;;;;;;4.25;2.72;;;15.70;99.90;;;;;;4215860;28;20618;-88
2023/10/10 07:36:50;;;;;;;4.88;2.25;;;15.70;99.90;;;;;;4199985;28;20273;-88
2023/10/10 07:39:27;;;;;;;8.18;2.97;;;15.80;99.90;;;;;;4200502;28;20254;-88
2023/10/10 07:41:19;;;;;;;8.32;2.70;;;16.00;99.90;;;;;;4236513;28;20189;-93
2023/10/10 07:43:27;;;;;;;4.40;2.10;;;16.10;99.90;;;;;;4202028;28;20171;-95
2023/10/10 07:45:33;;;;;;;7.75;2.63;;;16.30;99.90;;;;;;4200833;28;20292;-88
2023/10/10 07:47:53;;;;;;;4.25;2.22;;;16.50;99.90;;;;;;4216765;28;20676;-89
2023/10/10 07:49:55;;;;;;;6.38;2.47;;;16.50;99.90;;;;;;4215807;28;20182;-88
2023/10/10 07:52:02;;;;;;;6.47;2.97;;;16.40;99.90;;;;;;4242883;22;20218;-86
2023/10/10 07:54:12;;;;;;;6.68;2.47;;;16.40;99.90;;;;;;4245433;27;20162;-90
2023/10/10 07:56:32;;;;;;;4.35;2.17;;;16.40;99.90;;;;;;4215982;28;20178;-92
2023/10/10 07:58:49;;;;;;;5.32;2.63;;;16.40;99.90;;;;;;4211221;28;20175;-86
2023/10/10 08:01:03;;;;;;;7.85;2.20;;;16.40;99.90;;;;;;4192772;28;20227;-86
2023/10/10 08:03:07;;;;;;;5.68;2.58;;;16.50;99.90;;;;;;4210845;28;20184;-87
2023/10/10 08:05:12;;;;;;;5.45;2.70;;;16.60;99.90;;;;;;4224780;27;20150;-86
2023/10/10 08:07:18;;;;;;;4.97;2.50;;;16.80;99.90;;;;;;4208276;28;20213;-86
2023/10/10 08:09:29;;;;;;;4.43;2.40;;;17.00;99.90;;;;;;4226506;27;20177;-86
2023/10/10 08:11:40;;;;;;;5.55;2.58;;;17.00;99.90;;;;;;4193818;28;20167;-87
2023/10/10 08:13:48;;;;;;;7.82;2.58;;;17.20;99.90;;;;;;4194791;28;20168;-87
2023/10/10 08:17:58;;;;;;;4.72;2.63;;;17.20;99.90;;;;;;4212926;28;20171;-86
2023/10/10 08:20:31;;;;;;;5.57;1.88;;;17.20;99.90;;;;;;4196384;28;20211;-88
2023/10/10 08:22:32;;;;;;;6.50;2.63;;;17.50;99.90;;;;;;4213483;28;20185;-89
2023/10/10 08:24:33;;;;;;;8.25;2.95;;;17.60;99.90;;;;;;4214608;28;20162;-87
2023/10/10 08:26:45;;;;;;;7.43;2.55;;;17.80;99.90;;;;;;4196491;28;20175;-86
2023/10/10 08:29:03;;;;;;;5.60;2.67;;;18.00;99.90;;;;;;4195253;28;20175;-86
2023/10/10 08:31:03;;;;;;;5.70;3.05;;;18.30;99.90;;;;;;4196926;28;20256;-86
2023/10/10 08:33:04;;;;;;;12.50;2.60;;;18.50;99.90;;;;;;4213150;28;20175;-86
2023/10/10 08:35:05;;;;;;;6.63;2.45;;;18.70;99.90;;;;;;4209609;28;20179;-87
2023/10/10 08:37:16;;;;;;;5.93;2.35;;;19.10;99.90;;;;;;4231310;27;20239;-95
2023/10/10 08:41:25;;;;;;;9.80;3.22;;;20.10;99.90;;;;;;4231240;28;20177;-91
2023/10/10 08:43:35;;;;;;;4.70;2.08;;;20.20;99.90;;;;;;4190212;28;20173;-92
2023/10/10 08:45:43;;;;;;;4.22;2.38;;;20.10;99.90;;;;;;4206052;28;20194;-87
2023/10/10 08:47:44;;;;;;;5.00;2.38;;;19.80;99.90;;;;;;4193070;28;20167;-95
2023/10/10 08:49:49;;;;;;;7.55;2.33;;;19.80;99.90;;;;;;4208200;28;20238;-89
2023/10/10 08:51:54;;;;;;;8.45;2.55;;;19.90;99.90;;;;;;4208648;28;20179;-87
2023/10/10 08:53:55;;;;;;;4.55;2.05;;;20.10;99.90;;;;;;4188177;28;20176;-87
2023/10/10 08:55:56;;;;;;;6.60;2.17;;;19.80;99.90;;;;;;4189229;28;20184;-94
2023/10/10 08:58:00;;;;;;;6.95;2.92;;;19.70;99.90;;;;;;4188716;28;20206;-90
2023/10/10 09:00:01;;;;;;;5.63;2.67;;;19.60;99.90;;;;;;4205231;28;20191;-87
2023/10/10 09:02:19;;;;;;;5.82;2.50;;;19.50;99.90;;;;;;4188378;28;20206;-94
2023/10/10 09:04:20;;;;;;;4.85;2.33;;;19.60;99.90;;;;;;4189488;28;20618;-94
2023/10/10 09:06:21;;;;;;;8.70;2.13;;;19.50;99.90;;;;;;4172768;28;20733;-88
2023/10/10 09:08:28;;;;;;;5.25;2.22;;;19.20;99.90;;;;;;4209527;28;20171;-90
2023/10/10 09:10:39;;;;;;;5.55;2.50;;;19.30;99.90;;;;;;4206473;28;20174;-89
2023/10/10 09:13:01;;;;;;;3.90;2.42;;;19.30;99.90;;;;;;4191673;28;20163;-91
2023/10/10 09:15:20;;;;;;;7.05;2.13;;;19.40;99.90;;;;;;4219479;28;20190;-87
2023/10/10 09:17:34;;;;;;;4.63;2.00;;;19.80;99.90;;;;;;4189223;28;20182;-93
2023/10/10 09:19:48;;;;;;;5.40;2.25;;;20.30;99.90;;;;;;4186565;28;20210;-88
2023/10/10 09:21:55;;;;;;;5.75;2.50;;;20.60;99.90;;;;;;4208473;28;20170;-92
2023/10/10 09:24:26;;;;;;;3.85;1.85;;;20.90;99.90;;;;;;4185439;28;20170;-96
2023/10/10 09:28:43;;;;;;;4.47;2.03;;;21.30;99.90;;;;;;4206479;28;20535;-87
2023/10/10 09:30:50;;;;;;;5.53;2.88;;;21.50;99.90;;;;;;4190906;28;20238;-88
2023/10/10 09:32:57;;;;;;;10.90;2.33;;;21.50;99.90;;;;;;4189383;28;20171;-87
2023/10/10 09:34:58;;;;;;;7.55;1.98;;;21.70;99.90;;;;;;4189172;28;20166;-94
2023/10/10 09:37:01;;;;;;;4.75;2.20;;;22.00;99.90;;;;;;4192005;28;20190;-89
2023/10/10 09:39:26;;;;;;;7.13;2.38;;;22.20;99.90;;;;;;4189924;28;20229;-92
2023/10/10 09:43:36;;;;;;;4.35;2.10;;;22.00;99.90;;;;;;4207395;28;20214;-88
2023/10/10 09:45:55;;;;;;;4.07;1.73;;;21.80;99.90;;;;;;4207881;28;20194;-90
2023/10/10 09:48:28;;;;;;;8.02;2.90;;;21.60;99.90;;;;;;4192250;28;20209;-88
2023/10/10 09:50:35;;;;;;;9.40;3.53;;;21.60;99.90;;;;;;4207012;28;20177;-87
2023/10/10 09:52:57;;;;;;;5.60;2.33;;;21.70;99.90;;;;;;4192633;28;20180;-92
2023/10/10 09:55:16;;;;;;;5.68;2.42;;;21.70;99.90;;;;;;4200543;28;20194;-86
2023/10/10 09:57:18;;;;;;;5.88;2.20;;;21.80;99.90;;;;;;4198604;28;20277;-85
2023/10/10 09:59:28;;;;;;;9.32;2.20;;;22.00;99.90;;;;;;4198939;28;20182;-92
2023/10/10 10:01:29;;;;;;;5.28;2.20;;;22.10;99.90;;;;;;4184656;28;20210;-91
2023/10/10 10:05:31;;;;;;;5.63;2.35;;;21.80;99.90;;;;;;4199550;28;20887;-91
2023/10/10 10:07:56;;;;;;;4.78;2.08;;;21.60;99.90;;;;;;4167970;28;20275;-94
2023/10/10 10:10:22;;;;;;;7.07;2.10;;;21.50;99.90;;;;;;4187100;28;20175;-94
2023/10/10 10:12:32;;;;;;;5.47;2.65;;;21.40;99.90;;;;;;4200213;28;20250;-93
2023/10/10 10:14:36;;;;;;;4.78;2.20;;;21.30;99.90;;;;;;4184294;28;20742;-92
2023/10/10 10:16:46;;;;;;;3.85;1.80;;;21.20;99.90;;;;;;4199698;28;20209;-94
2023/10/10 10:18:52;;;;;;;4.63;1.73;;;21.20;99.90;;;;;;4183358;28;20171;-85
2023/10/10 10:23:17;;;;;;;5.72;1.85;;;21.30;99.90;;;;;;4218023;28;20165;-93
2023/10/10 10:25:36;;;;;;;5.50;1.80;;;21.40;99.90;;;;;;4184501;28;20685;-93
2023/10/10 10:27:41;;;;;;;3.58;1.35;;;21.40;99.90;;;;;;4200535;28;20167;-89
2023/10/10 10:29:53;;;;;;;3.90;1.55;;;21.40;99.90;;;;;;4202493;28;20170;-92
2023/10/10 10:32:00;;;;;;;4.35;1.65;;;21.50;99.90;;;;;;4183284;28;20183;-84
2023/10/10 10:34:06;;;;;;;3.15;1.40;;;21.70;99.90;;;;;;4183306;28;20179;-92
2023/10/10 10:36:14;;;;;;;6.05;1.70;;;21.80;99.90;;;;;;4181157;28;20290;-93
2023/10/10 10:38:17;;;;;;;3.42;1.70;;;22.00;99.90;;;;;;4221667;28;20287;-86
2023/10/10 10:40:42;;;;;;;4.70;1.88;;;22.00;99.90;;;;;;4182054;28;20218;-90
2023/10/10 10:42:46;;;;;;;7.45;1.30;;;21.90;99.90;;;;;;4199392;28;20174;-91
2023/10/10 10:44:55;;;;;;;4.30;1.35;;;21.90;99.90;;;;;;4197993;28;20665;-94
2023/10/10 10:46:56;;;;;;;3.97;1.38;;;21.90;99.90;;;;;;4197680;28;20194;-94
2023/10/10 10:49:05;;;;;;;4.30;1.48;;;22.00;99.90;;;;;;4181481;28;20172;-90
2023/10/10 10:51:22;;;;;;;7.57;1.70;;;21.90;99.90;;;;;;4181204;28;20573;-94
2023/10/10 10:53:33;;;;;;;4.10;1.60;;;21.80;99.90;;;;;;4197768;28;20167;-87
2023/10/10 10:55:42;;;;;;;3.55;1.50;;;21.90;99.90;;;;;;4180909;28;20189;-87
2023/10/10 10:58:05;;;;;;;3.72;1.67;;;21.80;99.90;;;;;;4197450;28;20691;-86
2023/10/10 11:00:19;;;;;;;4.13;1.42;;;21.70;99.90;;;;;;4197923;28;20696;-86
2023/10/10 11:02:30;;;;;;;4.55;1.70;;;21.70;99.90;;;;;;4198199;28;20232;-95
2023/10/10 11:06:32;;;;;;;4.07;1.38;;;22.30;99.90;;;;;;4197531;28;20214;-93
2023/10/10 11:10:50;;;;;;;3.20;1.00;;;22.40;99.90;;;;;;4215520;28;20174;-89
2023/10/10 11:12:51;;;;;;;2.63;1.25;;;22.50;99.90;;;;;;4180388;28;20171;-86
2023/10/10 11:14:53;;;;;;;6.82;1.33;;;22.60;99.90;;;;;;4180554;28;20167;-90
2023/10/10 11:16:57;;;;;;;2.85;1.25;;;22.80;99.90;;;;;;4197493;28;20195;-86
2023/10/10 11:19:03;;;;;;;4.97;2.10;;;22.80;99.90;;;;;;4197201;28;20595;-86
2023/10/10 11:21:09;;;;;;;3.85;1.42;;;23.00;99.90;;;;;;4197449;28;20202;-92
2023/10/10 11:23:14;;;;;;;4.18;1.50;;;23.10;99.90;;;;;;4197490;28;20261;-86
2023/10/10 11:25:26;;;;;;;4.25;1.45;;;23.20;99.90;;;;;;4180432;28;20732;-90
2023/10/10 11:27:29;;;;;;;4.03;1.17;;;23.20;99.90;;;;;;4180134;28;20658;-87
2023/10/10 11:29:32;;;;;;;4.90;1.10;;;23.30;99.90;;;;;;4180805;28;20581;-87
2023/10/10 11:31:34;;;;;;;2.50;1.30;;;23.40;99.90;;;;;;4180271;28;20266;-86
2023/10/10 11:36:02;;;;;;;2.97;1.40;;;23.40;99.90;;;;;;4196817;28;20206;-89
2023/10/10 11:38:09;;;;;;;3.92;1.42;;;23.40;99.90;;;;;;4180452;28;20166;-87
2023/10/10 11:40:19;;;;;;;4.20;1.27;;;23.50;99.90;;;;;;4179846;28;20215;-85
2023/10/10 11:42:33;;;;;;;4.75;1.17;;;23.50;99.90;;;;;;4196693;28;20531;-86
2023/10/10 11:44:34;;;;;;;2.95;1.15;;;23.60;99.90;;;;;;4196631;28;20189;-87
2023/10/10 11:46:38;;;;;;;3.72;1.55;;;23.60;99.90;;;;;;4180298;28;20211;-85
2023/10/10 11:48:42;;;;;;;2.40;1.20;;;23.70;99.90;;;;;;4199892;28;20718;-93
2023/10/10 11:50:56;;;;;;;3.47;1.05;;;23.80;99.90;;;;;;4183794;28;20979;-92
2023/10/10 11:52:58;;;;;;;3.75;1.30;;;23.70;99.90;;;;;;4200312;28;20276;-88
2023/10/10 11:55:00;;;;;;;3.30;1.08;;;23.60;99.90;;;;;;4183747;28;20179;-92
2023/10/10 11:57:07;;;;;;;7.18;1.25;;;23.80;99.90;;;;;;4201357;28;20658;-85
2023/10/10 11:59:13;;;;;;;3.33;1.25;;;23.80;99.90;;;;;;4203001;28;20179;-85
2023/10/10 12:01:30;;;;;;;5.03;1.15;;;23.70;99.90;;;;;;4202116;28;20221;-86
2023/10/10 12:03:42;;;;;;;5.18;1.90;;;23.80;99.90;;;;;;4185368;28;20313;-86
2023/10/10 12:05:49;;;;;;;1.42;0.73;;;23.90;99.90;;;;;;4185464;28;20235;-85
2023/10/10 12:07:50;;;;;;;3.35;1.27;;;24.00;99.90;;;;;;4185958;28;20647;-92
2023/10/10 12:09:54;;;;;;;3.20;1.10;;;24.10;99.90;;;;;;4186312;28;20225;-93
2023/10/10 12:11:59;;;;;;;5.85;0.98;;;24.10;99.90;;;;;;4202412;28;20163;-86
2023/10/10 12:14:01;;;;;;;2.53;1.02;;;24.10;99.90;;;;;;4185965;28;20635;-92
2023/10/10 12:16:12;;;;;;;3.22;1.42;;;24.20;99.90;;;;;;4185699;28;20199;-86
2023/10/10 12:18:13;;;;;;;2.83;0.98;;;24.30;99.90;;;;;;4202114;28;20646;-88
2023/10/10 12:20:16;;;;;;;2.65;0.90;;;24.30;99.90;;;;;;4219337;28;20190;-90
2023/10/10 12:22:17;;;;;;;3.15;0.80;;;24.30;99.90;;;;;;4184971;28;20321;-92
2023/10/10 12:24:23;;;;;;;2.47;0.90;;;24.30;99.90;;;;;;4202668;28;20171;-85
2023/10/10 12:26:24;;;;;;;2.92;0.95;;;24.50;99.90;;;;;;4202208;28;20269;-91
2023/10/10 12:28:25;;;;;;;2.90;1.27;;;24.60;99.90;;;;;;4201318;28;20163;-87
2023/10/10 12:30:27;;;;;;;5.75;1.13;;;24.80;99.90;;;;;;4184933;28;20258;-93
2023/10/10 12:32:28;;;;;;;3.67;1.40;;;24.80;99.90;;;;;;4201484;28;20170;-86
2023/10/10 12:34:28;;;;;;;4.05;1.40;;;24.80;99.90;;;;;;4185193;28;20635;-86
2023/10/10 12:36:30;;;;;;;3.50;1.23;;;24.80;99.90;;;;;;4201038;28;20183;-92
2023/10/10 12:38:32;;;;;;;2.55;1.40;;;24.80;99.90;;;;;;4184116;28;20185;-85
2023/10/10 12:40:33;;;;;;;3.55;1.20;;;24.80;99.90;;;;;;4184648;28;20721;-86
2023/10/10 12:42:34;;;;;;;6.70;1.50;;;24.80;99.90;;;;;;4184130;28;20187;-91
2023/10/10 12:44:35;;;;;;;2.95;0.98;;;24.90;99.90;;;;;;4202191;28;20175;-85
2023/10/10 12:46:36;;;;;;;2.28;0.95;;;24.60;99.90;;;;;;4201960;28;20186;-85
2023/10/10 12:48:39;;;;;;;3.28;1.25;;;24.60;99.90;;;;;;4201064;28;20253;-89
2023/10/10 12:50:46;;;;;;;1.90;0.88;;;24.70;99.90;;;;;;4185820;28;20171;-84
2023/10/10 12:52:57;;;;;;;2.28;0.90;;;24.90;99.90;;;;;;4185690;28;20186;-96
2023/10/10 12:54:58;;;;;;;2.58;1.10;;;25.10;99.90;;;;;;4183582;28;20216;-89
2023/10/10 12:57:02;;;;;;;4.07;0.75;;;25.10;99.90;;;;;;4201825;28;20663;-92
2023/10/10 12:59:07;;;;;;;5.22;1.48;;;25.30;99.90;;;;;;4184792;28;20179;-94
2023/10/10 13:01:12;;;;;;;1.55;1.02;;;25.30;99.90;;;;;;4185492;28;20214;-90
2023/10/10 13:03:13;;;;;;;1.92;0.82;;;25.10;99.90;;;;;;4186314;28;20527;-93
2023/10/10 13:05:13;;;;;;;1.38;0.70;;;25.00;99.90;;;;;;4201622;28;20183;-92
2023/10/10 13:07:16;;;;;;;3.40;1.00;;;24.90;99.90;;;;;;4186077;28;20176;-89
2023/10/10 13:09:19;;;;;;;2.22;0.82;;;24.60;99.90;;;;;;4203476;28;20171;-93
2023/10/10 13:11:32;;;;;;;2.13;0.82;;;24.60;99.90;;;;;;4186929;28;20178;-87
2023/10/10 13:13:45;;;;;;;4.22;1.10;;;24.70;99.90;;;;;;4220391;28;20169;-93
2023/10/10 13:16:07;;;;;;;2.25;0.75;;;24.60;99.90;;;;;;4202923;28;20202;-90
2023/10/10 13:18:20;;;;;;;1.50;0.85;;;24.80;99.90;;;;;;4186808;28;20287;-93
2023/10/10 13:20:24;;;;;;;3.05;1.00;;;24.90;99.90;;;;;;4186042;28;20283;-93